Airfield :
LOGIN :

Register | Disclaimer

   EN    FR    IT 

 










Legend :    VFR   Marginal VFR   IFR   Intensive IFR   Very Intensive IFR
Visi :
Ceiling :
>= 8 km
>= 3000ft
5 to 8 km
1000 to 3000 ft
1500m to 5 km
500 to 1000 ft
800 to 1500m
200 to 500 ft
< 800m
< 200 ft
Symbols :   Thunderstorms  Fog  Heavy snow  Heavy precipitations  Wind > 20 kt
SIGMETs :     Misc.  Thunderstorms  Icing  Turbulence  Mountain Waves  Volcanic Ashes






- Airport Elevation : 1000 ft
- IATA code : PEV


LHPP - Pécs Pogany

CURRENT METAR :
  • 280715Z AUTO 12005KT 080V140 4500 BR OVC006 02/01 Q1023

EXPIRED METARs :
  • 280645Z AUTO 12006KT 5000 BR OVC007 02/01 Q1023
  • 280615Z AUTO 13005KT 6000 OVC008 03/01 Q1023
  • 280545Z AUTO 12004KT 070V160 8000 OVC007 03/01 Q1023
  • 280515Z AUTO 12007KT 8000 OVC008 03/01 Q1023
  • 280445Z AUTO 11006KT 080V150 9999 OVC009 03/01 Q1023

TAF AMD TAF LHPP
Valid from the 28 at 07:00 until the 28 at 15:00 UTC


280700Z 2807/2815 11006KT 5000 BR OVC008
TEMPO 2807/2809 2000 OVC004
BECMG 2809/2812 8000 NSW OVC016



MET'MAP, your aeronautical weather chart ! - Copyright ORBIFLY December 2007 - Disclaimer

ORBIFLY MET'MAP TEAM :

Programming & Development : Alexandra Zaïnal
Original concept : Baudouin d'Aumeries
Technical & hardware support : Manuel Goepfert
Assistance : Marc-Olivier Méhu




SOURCES & CREDITS :

   NOAA